createdAt,value
2023-11-19T00:00:18.258Z,59.30
2023-11-19T00:02:45.267Z,59.60
2023-11-19T00:05:13.521Z,59.60
2023-11-19T00:07:44.749Z,59.60
2023-11-19T00:10:12.535Z,59.40
2023-11-19T00:12:41.617Z,59.50
2023-11-19T00:15:13.010Z,59.30
2023-11-19T00:17:47.618Z,59.30
2023-11-19T00:20:16.246Z,59.40
2023-11-19T00:25:13.801Z,58.90
2023-11-19T00:27:40.922Z,58.90
2023-11-19T00:30:09.513Z,58.90
2023-11-19T00:32:37.459Z,58.90
2023-11-19T00:35:04.724Z,58.90
2023-11-19T00:37:31.584Z,58.80
2023-11-19T00:39:59.506Z,58.80
2023-11-19T00:42:26.538Z,58.80
2023-11-19T00:44:53.627Z,58.90
2023-11-19T00:47:23.286Z,59.00
2023-11-19T00:49:50.363Z,59.20
2023-11-19T00:52:20.321Z,59.40
2023-11-19T00:54:47.347Z,59.50
2023-11-19T00:57:14.278Z,59.40
2023-11-19T00:59:43.863Z,59.40
2023-11-19T01:02:10.836Z,59.50
2023-11-19T01:04:38.978Z,59.70
2023-11-19T01:07:07.310Z,59.70
2023-11-19T01:09:37.367Z,59.80
2023-11-19T01:12:04.536Z,59.70
2023-11-19T01:14:31.881Z,59.80
2023-11-19T01:16:59.387Z,60.00
2023-11-19T01:19:26.692Z,60.10
2023-11-19T01:21:53.701Z,60.30
2023-11-19T01:24:20.930Z,60.20
2023-11-19T01:26:48.846Z,60.20
2023-11-19T01:29:17.010Z,60.40
2023-11-19T01:31:46.520Z,60.50
2023-11-19T01:34:13.743Z,60.50
2023-11-19T01:36:40.676Z,60.40
2023-11-19T01:39:08.059Z,60.60
2023-11-19T01:41:40.332Z,60.60
2023-11-19T01:44:07.834Z,60.80
2023-11-19T01:46:37.049Z,61.20
2023-11-19T01:49:04.787Z,60.70
2023-11-19T01:51:32.172Z,60.80
2023-11-19T01:53:59.623Z,60.90
2023-11-19T01:56:28.204Z,61.00
2023-11-19T01:58:57.240Z,60.80
2023-11-19T02:01:24.767Z,60.80
2023-11-19T02:03:53.349Z,60.80
2023-11-19T02:06:20.659Z,60.90
2023-11-19T02:08:47.551Z,60.90
2023-11-19T02:11:14.619Z,60.90
2023-11-19T02:13:42.719Z,61.00
2023-11-19T02:16:10.853Z,61.20
2023-11-19T02:18:37.957Z,61.30
2023-11-19T02:21:06.497Z,61.40
2023-11-19T02:23:34.194Z,61.40
2023-11-19T02:26:10.626Z,61.40
2023-11-19T02:28:38.381Z,61.30
2023-11-19T02:31:11.734Z,61.20
2023-11-19T02:33:39.727Z,61.00
2023-11-19T02:36:08.309Z,61.00
2023-11-19T02:38:36.888Z,61.00
2023-11-19T02:41:08.545Z,61.10
2023-11-19T02:43:36.542Z,61.20
2023-11-19T02:48:37.950Z,61.30
2023-11-19T02:51:05.437Z,61.20
2023-11-19T02:53:33.045Z,61.40
2023-11-19T02:56:07.367Z,61.40
2023-11-19T02:58:35.753Z,61.10
2023-11-19T03:01:11.981Z,61.10
2023-11-19T03:03:43.151Z,61.00
2023-11-19T03:06:11.269Z,61.10
2023-11-19T03:08:38.343Z,61.00
2023-11-19T03:11:06.099Z,61.20
2023-11-19T03:13:33.123Z,61.20
2023-11-19T03:16:00.205Z,60.90
2023-11-19T03:18:28.143Z,60.80
2023-11-19T03:20:55.026Z,60.70
2023-11-19T03:23:22.056Z,60.70
2023-11-19T03:25:48.961Z,60.70
2023-11-19T03:28:16.109Z,60.80
2023-11-19T03:30:43.110Z,60.80
2023-11-19T03:33:10.210Z,60.90
2023-11-19T03:35:37.248Z,60.80
2023-11-19T03:38:04.148Z,60.80
2023-11-19T03:40:31.209Z,60.80
2023-11-19T03:42:59.722Z,60.80
2023-11-19T03:45:26.881Z,60.80
2023-11-19T03:47:53.861Z,61.00
2023-11-19T03:50:21.561Z,61.10
2023-11-19T03:52:49.725Z,61.10
2023-11-19T03:55:16.960Z,61.20
2023-11-19T03:57:43.972Z,61.00
2023-11-19T04:00:11.565Z,60.80
2023-11-19T04:02:38.827Z,60.50
2023-11-19T04:05:06.534Z,60.50
2023-11-19T04:07:33.774Z,60.50
2023-11-19T04:10:01.420Z,60.60
2023-11-19T04:12:28.401Z,60.90
2023-11-19T04:17:25.301Z,61.00
2023-11-19T04:19:52.302Z,61.30
2023-11-19T04:22:19.251Z,61.40
2023-11-19T04:24:47.065Z,61.50
2023-11-19T04:27:15.077Z,61.50
2023-11-19T04:29:42.040Z,61.60
2023-11-19T04:32:09.098Z,61.50
2023-11-19T04:34:36.426Z,61.60
2023-11-19T04:37:13.309Z,61.70
2023-11-19T04:39:40.903Z,61.60
2023-11-19T04:42:08.027Z,61.50
2023-11-19T04:44:35.108Z,61.60
2023-11-19T04:47:02.331Z,61.70
2023-11-19T04:49:29.563Z,61.50
2023-11-19T04:51:56.533Z,61.50
2023-11-19T04:54:23.512Z,61.60
2023-11-19T04:56:50.463Z,61.50
2023-11-19T04:59:17.470Z,61.40
2023-11-19T05:01:49.202Z,61.40
2023-11-19T05:04:16.499Z,61.40
2023-11-19T05:06:43.658Z,61.40
2023-11-19T05:09:10.873Z,61.40
2023-11-19T05:11:51.373Z,61.50
2023-11-19T05:14:20.901Z,61.50
2023-11-19T05:16:47.906Z,61.60
2023-11-19T05:19:15.596Z,61.70
2023-11-19T05:21:45.840Z,61.80
2023-11-19T05:24:15.769Z,61.80
2023-11-19T05:26:42.830Z,61.80
2023-11-19T05:29:09.990Z,61.90
2023-11-19T05:31:37.864Z,61.90
2023-11-19T05:34:05.982Z,62.00
2023-11-19T05:36:33.093Z,62.00
2023-11-19T05:39:00.080Z,62.00
2023-11-19T05:41:26.946Z,61.90
2023-11-19T05:43:53.949Z,61.90
2023-11-19T05:46:21.526Z,62.00
2023-11-19T05:48:49.223Z,62.00
2023-11-19T05:51:17.672Z,61.80
2023-11-19T05:53:47.062Z,61.70
2023-11-19T05:56:14.766Z,61.70
2023-11-19T05:58:41.926Z,61.70
2023-11-19T06:01:09.615Z,61.60
2023-11-19T06:03:38.178Z,61.70
2023-11-19T06:06:06.505Z,61.80
2023-11-19T06:08:33.826Z,61.90
2023-11-19T06:11:02.524Z,61.90
2023-11-19T06:13:32.609Z,61.90
2023-11-19T06:16:00.177Z,62.00
2023-11-19T06:18:27.371Z,62.10
2023-11-19T06:20:54.436Z,62.10
2023-11-19T06:23:21.342Z,61.80
2023-11-19T06:25:48.752Z,61.70
2023-11-19T06:28:16.033Z,61.60
2023-11-19T06:30:43.378Z,61.40
2023-11-19T06:33:13.675Z,61.30
2023-11-19T06:35:40.706Z,61.20
2023-11-19T06:38:07.815Z,61.10
2023-11-19T06:40:38.487Z,61.10
2023-11-19T06:43:05.652Z,61.10
2023-11-19T06:45:33.233Z,60.90
2023-11-19T06:48:04.520Z,60.90
2023-11-19T06:50:35.137Z,60.80
2023-11-19T06:53:02.181Z,60.60
2023-11-19T06:55:29.256Z,60.50
2023-11-19T06:57:56.212Z,60.60
2023-11-19T07:00:23.216Z,60.60
2023-11-19T07:02:51.619Z,60.70
2023-11-19T07:05:19.117Z,60.90
2023-11-19T07:07:48.116Z,61.00
2023-11-19T07:10:15.109Z,61.10
2023-11-19T07:12:43.407Z,61.20
2023-11-19T07:15:10.700Z,61.40
2023-11-19T07:17:37.857Z,61.40
2023-11-19T07:20:05.581Z,61.60
2023-11-19T07:22:32.727Z,61.60
2023-11-19T07:25:00.197Z,61.70
2023-11-19T07:27:27.218Z,61.70
2023-11-19T07:29:54.172Z,62.10
2023-11-19T07:32:21.212Z,61.70
2023-11-19T07:34:48.159Z,61.60
2023-11-19T07:37:15.038Z,61.50
2023-11-19T07:39:42.569Z,61.60
2023-11-19T07:42:10.870Z,61.50
2023-11-19T07:44:38.146Z,61.20
2023-11-19T07:47:05.829Z,60.70
2023-11-19T07:49:32.777Z,60.40
2023-11-19T07:51:59.926Z,60.40
2023-11-19T07:54:26.947Z,60.40
2023-11-19T07:56:53.972Z,60.20
2023-11-19T07:59:21.045Z,60.20
2023-11-19T08:01:49.049Z,60.30
2023-11-19T08:04:16.589Z,60.60
2023-11-19T08:06:43.590Z,60.90
2023-11-19T08:09:15.007Z,61.70
2023-11-19T08:11:42.923Z,61.00
2023-11-19T08:14:10.221Z,61.50
2023-11-19T08:16:39.023Z,61.50
2023-11-19T08:19:06.108Z,61.70
2023-11-19T08:21:33.448Z,61.70
2023-11-19T08:24:00.472Z,61.80
2023-11-19T08:26:27.421Z,61.80
2023-11-19T08:28:54.439Z,61.80
2023-11-19T08:31:21.434Z,61.70
2023-11-19T08:33:48.519Z,61.50
2023-11-19T08:36:18.830Z,61.10
2023-11-19T08:38:46.005Z,61.20
2023-11-19T08:41:13.061Z,61.60
2023-11-19T08:43:40.403Z,62.10
2023-11-19T08:46:13.765Z,62.00
2023-11-19T08:48:41.238Z,62.10
2023-11-19T08:51:08.226Z,62.10
2023-11-19T08:53:35.673Z,62.20
2023-11-19T08:56:04.543Z,62.10
2023-11-19T08:58:32.247Z,62.20
2023-11-19T09:01:00.112Z,62.60
2023-11-19T09:03:28.019Z,62.40
2023-11-19T09:05:55.237Z,62.30
2023-11-19T09:08:22.170Z,62.40
2023-11-19T09:10:49.261Z,62.40
2023-11-19T09:13:16.372Z,62.10
2023-11-19T09:15:43.798Z,62.20
2023-11-19T09:18:10.800Z,62.40
2023-11-19T09:20:40.103Z,62.30
2023-11-19T09:23:10.682Z,62.20
2023-11-19T09:28:07.465Z,61.90
2023-11-19T09:30:35.015Z,61.70
2023-11-19T09:33:02.386Z,61.60
2023-11-19T09:35:29.513Z,61.70
2023-11-19T09:37:56.461Z,62.00
2023-11-19T09:40:23.759Z,61.80
2023-11-19T09:42:50.620Z,62.00
2023-11-19T09:45:20.954Z,62.10
2023-11-19T09:47:48.749Z,62.10
2023-11-19T09:50:20.354Z,62.10
2023-11-19T09:52:50.788Z,62.30
2023-11-19T09:55:18.055Z,62.20
2023-11-19T09:57:45.691Z,61.80
2023-11-19T10:00:16.502Z,61.40
2023-11-19T10:02:47.938Z,61.30
2023-11-19T10:05:16.722Z,61.40
2023-11-19T10:07:44.257Z,61.50
2023-11-19T10:10:15.298Z,61.80
2023-11-19T10:12:57.652Z,62.10
2023-11-19T10:15:28.087Z,62.20
2023-11-19T10:17:59.305Z,62.40
2023-11-19T10:20:26.685Z,62.30
2023-11-19T10:22:57.512Z,62.30
2023-11-19T10:25:28.726Z,62.20
2023-11-19T10:27:59.333Z,62.00
2023-11-19T10:30:30.953Z,61.60
2023-11-19T10:33:07.437Z,61.50
2023-11-19T10:36:03.516Z,61.40
2023-11-19T10:38:31.917Z,61.30
2023-11-19T10:40:58.998Z,61.00
2023-11-19T10:43:26.879Z,61.00
2023-11-19T10:45:53.861Z,60.90
2023-11-19T10:48:22.672Z,61.00
2023-11-19T10:50:57.113Z,60.90
2023-11-19T10:53:27.478Z,60.80
2023-11-19T10:55:59.719Z,61.10
2023-11-19T10:58:33.471Z,61.30
2023-11-19T11:01:06.729Z,61.40
2023-11-19T11:03:42.281Z,61.40
2023-11-19T11:06:10.734Z,61.60
2023-11-19T11:08:41.008Z,61.80
2023-11-19T11:11:09.214Z,61.90
2023-11-19T11:13:38.180Z,62.20
2023-11-19T11:16:09.031Z,62.00
2023-11-19T11:18:36.269Z,62.40
2023-11-19T11:21:16.699Z,62.10
2023-11-19T11:24:03.956Z,62.20
2023-11-19T11:26:50.049Z,62.20
2023-11-19T11:29:32.300Z,62.30
2023-11-19T11:32:18.652Z,62.60
2023-11-19T11:35:01.784Z,62.60
2023-11-19T11:37:33.887Z,62.90
2023-11-19T11:40:02.232Z,63.10
2023-11-19T11:42:33.033Z,63.10
2023-11-19T11:45:14.541Z,62.90
2023-11-19T11:47:44.498Z,63.00
2023-11-19T11:50:14.894Z,63.00
2023-11-19T11:53:23.315Z,63.10
2023-11-19T11:55:50.854Z,63.10
2023-11-19T11:58:24.762Z,63.60
2023-11-19T12:00:52.677Z,62.90
2023-11-19T12:03:25.261Z,62.80
2023-11-19T12:05:52.229Z,63.00
2023-11-19T12:08:27.133Z,63.20
2023-11-19T12:10:59.256Z,63.20
2023-11-19T12:13:45.375Z,62.90
2023-11-19T12:16:12.585Z,63.10
2023-11-19T12:18:41.054Z,63.10
2023-11-19T12:21:10.952Z,62.80
2023-11-19T12:23:46.913Z,62.80
2023-11-19T12:26:33.665Z,63.00
2023-11-19T12:29:01.613Z,62.90
2023-11-19T12:31:28.618Z,62.90
2023-11-19T12:33:55.876Z,62.90
2023-11-19T12:36:22.945Z,63.10
2023-11-19T12:38:50.237Z,63.20
2023-11-19T12:41:21.701Z,63.10
2023-11-19T12:46:23.342Z,64.10
2023-11-19T12:48:51.632Z,63.60
2023-11-19T12:51:19.031Z,63.50
2023-11-19T12:53:56.443Z,63.40
2023-11-19T12:56:23.866Z,63.10
2023-11-19T12:58:51.417Z,63.30
2023-11-19T13:01:20.721Z,63.20
2023-11-19T13:03:50.058Z,63.40
2023-11-19T13:06:17.367Z,63.50
2023-11-19T13:08:46.001Z,63.60
2023-11-19T13:11:14.250Z,63.50
2023-11-19T13:14:05.219Z,63.50
2023-11-19T13:16:33.334Z,63.70
2023-11-19T13:19:01.429Z,63.70
2023-11-19T13:21:28.720Z,63.90
2023-11-19T13:23:55.738Z,63.90
2023-11-19T13:26:22.938Z,63.90
2023-11-19T13:28:50.285Z,64.00
2023-11-19T13:31:17.662Z,64.00
2023-11-19T13:33:44.914Z,64.10
2023-11-19T13:36:15.255Z,64.20
2023-11-19T13:38:45.572Z,64.20
2023-11-19T13:41:13.675Z,64.20
2023-11-19T13:43:41.587Z,64.20
2023-11-19T13:46:11.567Z,64.20
2023-11-19T13:48:39.194Z,64.20
2023-11-19T13:51:06.730Z,64.30
2023-11-19T13:53:51.630Z,64.20
2023-11-19T13:56:19.115Z,64.20
2023-11-19T13:58:46.034Z,64.30
2023-11-19T14:01:14.307Z,64.50
2023-11-19T14:03:43.457Z,64.50
2023-11-19T14:06:10.887Z,64.50
2023-11-19T14:08:38.748Z,64.40
2023-11-19T14:11:06.326Z,64.30
2023-11-19T14:13:33.807Z,64.60
2023-11-19T14:16:01.028Z,64.50
2023-11-19T14:18:28.184Z,64.50
2023-11-19T14:20:55.328Z,64.80
2023-11-19T14:23:22.188Z,64.60
2023-11-19T14:25:50.520Z,64.50
2023-11-19T14:28:17.458Z,64.70
2023-11-19T14:30:46.159Z,64.80
2023-11-19T14:33:13.158Z,64.70
2023-11-19T14:35:40.158Z,64.80
2023-11-19T14:38:10.912Z,65.40
2023-11-19T14:43:08.131Z,64.80
2023-11-19T14:45:39.411Z,64.90
2023-11-19T14:48:12.288Z,64.90
2023-11-19T14:50:39.181Z,64.80
2023-11-19T14:53:06.105Z,65.10
2023-11-19T14:55:33.541Z,65.10
2023-11-19T14:58:07.974Z,65.00
2023-11-19T15:00:37.262Z,65.00
2023-11-19T15:03:04.315Z,65.10
2023-11-19T15:05:31.528Z,65.10
2023-11-19T15:07:58.605Z,65.00
2023-11-19T15:10:26.483Z,65.10
2023-11-19T15:12:54.801Z,65.10
2023-11-19T15:17:51.964Z,65.20
2023-11-19T15:20:20.353Z,65.20
2023-11-19T15:22:47.875Z,65.00
2023-11-19T15:25:15.103Z,65.00
2023-11-19T15:27:42.269Z,65.10
2023-11-19T15:30:11.581Z,65.10
2023-11-19T15:32:40.119Z,65.10
2023-11-19T15:35:08.785Z,65.00
2023-11-19T15:37:36.640Z,65.10
2023-11-19T15:40:09.068Z,65.20
2023-11-19T15:42:36.688Z,65.30
2023-11-19T15:45:06.153Z,65.30
2023-11-19T15:47:33.324Z,65.30
2023-11-19T15:50:01.174Z,65.40
2023-11-19T15:52:28.212Z,65.50
2023-11-19T15:54:55.119Z,65.40
2023-11-19T15:57:22.103Z,65.40
2023-11-19T15:59:52.508Z,65.50
2023-11-19T16:02:19.550Z,65.40
2023-11-19T16:04:49.034Z,65.30
2023-11-19T16:07:16.192Z,65.50
2023-11-19T16:09:43.320Z,65.50
2023-11-19T16:12:10.543Z,65.50
2023-11-19T16:14:38.467Z,65.60
2023-11-19T16:17:05.635Z,65.70
2023-11-19T16:19:33.072Z,65.80
2023-11-19T16:22:06.677Z,65.70
2023-11-19T16:24:33.581Z,65.70
2023-11-19T16:27:00.452Z,65.50
2023-11-19T16:29:27.356Z,65.60
2023-11-19T16:31:54.376Z,65.60
2023-11-19T16:34:23.557Z,65.50
2023-11-19T16:36:51.474Z,65.60
2023-11-19T16:39:18.437Z,65.60
2023-11-19T16:41:45.438Z,65.50
2023-11-19T16:44:12.430Z,65.60
2023-11-19T16:46:39.656Z,65.50
2023-11-19T16:49:07.884Z,65.60
2023-11-19T16:51:35.019Z,65.70
2023-11-19T16:54:05.074Z,65.70
2023-11-19T16:56:35.121Z,65.80
2023-11-19T16:59:02.529Z,65.70
2023-11-19T17:01:29.769Z,65.60
2023-11-19T17:03:56.998Z,65.60
2023-11-19T17:06:24.767Z,65.50
2023-11-19T17:08:52.945Z,65.40
2023-11-19T17:11:20.219Z,65.40
2023-11-19T17:13:47.132Z,65.30
2023-11-19T17:16:14.289Z,65.40
2023-11-19T17:18:41.191Z,65.20
2023-11-19T17:21:08.177Z,65.10
2023-11-19T17:23:35.154Z,65.00
2023-11-19T17:26:02.313Z,64.90
2023-11-19T17:28:29.271Z,64.90
2023-11-19T17:30:56.166Z,64.80
2023-11-19T17:33:23.172Z,64.80
2023-11-19T17:35:50.226Z,64.80
2023-11-19T17:40:48.376Z,64.60
2023-11-19T17:43:16.975Z,64.50
2023-11-19T17:45:44.641Z,64.40
2023-11-19T17:48:11.977Z,64.40
2023-11-19T17:50:39.005Z,64.20
2023-11-19T17:53:06.104Z,64.30
2023-11-19T17:55:33.045Z,64.40
2023-11-19T17:57:59.971Z,64.30
2023-11-19T18:00:29.076Z,64.30
2023-11-19T18:02:56.388Z,64.60
2023-11-19T18:05:23.774Z,64.90
2023-11-19T18:07:51.157Z,64.90
2023-11-19T18:10:18.777Z,64.80
2023-11-19T18:12:46.798Z,65.60
2023-11-19T18:15:14.552Z,65.20
2023-11-19T18:17:45.866Z,65.20
2023-11-19T18:20:15.800Z,65.30
2023-11-19T18:22:46.541Z,65.20
2023-11-19T18:25:15.147Z,65.10
2023-11-19T18:27:43.691Z,65.30
2023-11-19T18:30:12.292Z,65.50
2023-11-19T18:32:39.832Z,65.50
2023-11-19T18:35:07.447Z,65.70
2023-11-19T18:37:34.654Z,65.70
2023-11-19T18:40:02.108Z,65.80
2023-11-19T18:42:29.255Z,65.70
2023-11-19T18:44:56.332Z,65.70
2023-11-19T18:47:23.332Z,65.70
2023-11-19T18:49:52.500Z,65.90
2023-11-19T18:52:19.799Z,66.00
2023-11-19T18:54:46.931Z,66.10
2023-11-19T18:57:13.873Z,66.20
2023-11-19T18:59:40.889Z,66.20
2023-11-19T19:02:08.166Z,66.90
2023-11-19T19:07:04.528Z,66.20
2023-11-19T19:09:31.503Z,66.30
2023-11-19T19:11:58.398Z,66.30
2023-11-19T19:14:25.375Z,66.40
2023-11-19T19:16:52.413Z,66.40
2023-11-19T19:19:19.368Z,66.60
2023-11-19T19:21:47.375Z,66.60
2023-11-19T19:24:15.796Z,66.70
2023-11-19T19:26:42.978Z,66.70
2023-11-19T19:29:10.041Z,66.70
2023-11-19T19:31:37.331Z,66.80
2023-11-19T19:34:04.446Z,66.80
2023-11-19T19:36:32.941Z,66.70
2023-11-19T19:39:01.172Z,66.60
2023-11-19T19:41:28.230Z,66.70
2023-11-19T19:43:55.462Z,66.70
2023-11-19T19:46:22.885Z,66.70
2023-11-19T19:48:51.905Z,66.70
2023-11-19T19:51:19.964Z,66.70
2023-11-19T19:53:47.620Z,67.30
2023-11-19T19:56:14.723Z,66.70
2023-11-19T19:58:41.738Z,66.80
2023-11-19T20:01:09.779Z,66.80
2023-11-19T20:03:39.738Z,66.80
2023-11-19T20:06:12.825Z,66.70
2023-11-19T20:08:40.947Z,66.60
2023-11-19T20:11:11.615Z,66.50
2023-11-19T20:13:38.632Z,66.50
2023-11-19T20:16:06.374Z,66.40
2023-11-19T20:18:36.988Z,66.40
2023-11-19T20:21:09.986Z,66.40
2023-11-19T20:23:37.062Z,66.40
2023-11-19T20:26:04.237Z,66.50
2023-11-19T20:28:32.282Z,66.50
2023-11-19T20:30:59.185Z,66.60
2023-11-19T20:33:26.111Z,66.70
2023-11-19T20:35:53.069Z,66.70
2023-11-19T20:38:20.007Z,66.80
2023-11-19T20:40:47.001Z,66.80
2023-11-19T20:43:14.054Z,66.80
2023-11-19T20:45:41.060Z,66.80
2023-11-19T20:48:07.990Z,66.80
2023-11-19T20:50:35.593Z,66.80
2023-11-19T20:53:03.634Z,66.70
2023-11-19T20:55:32.369Z,66.70
2023-11-19T20:58:00.464Z,66.70
2023-11-19T21:00:27.594Z,66.60
2023-11-19T21:02:59.394Z,66.60
2023-11-19T21:05:26.541Z,66.70
2023-11-19T21:07:53.591Z,66.70
2023-11-19T21:10:20.526Z,66.60
2023-11-19T21:12:51.134Z,66.70
2023-11-19T21:15:18.402Z,66.60
2023-11-19T21:17:45.300Z,66.60
2023-11-19T21:20:12.970Z,66.60
2023-11-19T21:22:40.219Z,66.50
2023-11-19T21:25:07.841Z,66.60
2023-11-19T21:27:34.993Z,66.50
2023-11-19T21:30:05.783Z,66.60
2023-11-19T21:32:33.803Z,66.50
2023-11-19T21:35:02.291Z,66.60
2023-11-19T21:37:29.229Z,66.60
2023-11-19T21:39:56.241Z,66.60
2023-11-19T21:42:23.259Z,66.60
2023-11-19T21:44:50.225Z,66.70
2023-11-19T21:47:17.164Z,66.60
2023-11-19T21:49:45.769Z,66.70
2023-11-19T21:52:12.709Z,66.70
2023-11-19T21:54:39.703Z,66.70
2023-11-19T21:57:06.641Z,66.80
2023-11-19T21:59:33.790Z,66.80
2023-11-19T22:02:00.763Z,66.90
2023-11-19T22:04:29.298Z,66.90
2023-11-19T22:06:56.595Z,67.00
2023-11-19T22:09:23.662Z,67.00
2023-11-19T22:11:50.827Z,67.00
2023-11-19T22:14:18.525Z,67.00
2023-11-19T22:16:46.760Z,67.10
2023-11-19T22:19:13.839Z,67.00
2023-11-19T22:21:41.311Z,67.00
2023-11-19T22:24:10.611Z,67.00
2023-11-19T22:26:38.763Z,67.00
2023-11-19T22:29:06.002Z,67.00
2023-11-19T22:31:35.500Z,66.90
2023-11-19T22:34:05.842Z,66.80
2023-11-19T22:36:33.171Z,66.60
2023-11-19T22:39:00.353Z,67.10
2023-11-19T22:41:30.611Z,66.30
2023-11-19T22:43:57.594Z,66.20
2023-11-19T22:46:24.624Z,66.10
2023-11-19T22:48:54.114Z,66.00
2023-11-19T22:51:22.201Z,66.10
2023-11-19T22:53:49.133Z,66.20
2023-11-19T22:56:17.818Z,66.20
2023-11-19T22:58:50.355Z,66.30
2023-11-19T23:01:21.010Z,66.50
2023-11-19T23:03:48.080Z,66.60
2023-11-19T23:06:15.284Z,66.60
2023-11-19T23:08:42.249Z,66.60
2023-11-19T23:11:09.245Z,66.70
2023-11-19T23:13:36.216Z,66.80
2023-11-19T23:16:03.512Z,66.80
2023-11-19T23:18:30.610Z,66.80
2023-11-19T23:20:57.536Z,66.90
2023-11-19T23:23:24.499Z,67.00
2023-11-19T23:25:52.045Z,67.50
2023-11-19T23:28:18.945Z,66.90
2023-11-19T23:30:45.935Z,66.80
2023-11-19T23:33:12.980Z,66.80
2023-11-19T23:35:39.999Z,66.90
2023-11-19T23:38:06.944Z,66.90
2023-11-19T23:40:33.846Z,66.90
2023-11-19T23:43:00.852Z,66.90
2023-11-19T23:45:29.029Z,66.90
2023-11-19T23:47:56.093Z,67.00
2023-11-19T23:50:23.416Z,67.00
2023-11-19T23:52:50.479Z,67.00
2023-11-19T23:55:18.331Z,66.90
2023-11-19T23:57:45.293Z,67.10
